sensor_id;sensor_type;location;lat;lon;timestamp;P1;durP1;ratioP1;P2;durP2;ratioP2
65996;SDS011;52765;52.258;21.052;2022-11-18T00:00:53;23.95;;;12.57;;
65996;SDS011;52765;52.258;21.052;2022-11-18T00:03:19;27.15;;;13.52;;
65996;SDS011;52765;52.258;21.052;2022-11-18T00:05:51;24.23;;;12.00;;
65996;SDS011;52765;52.258;21.052;2022-11-18T00:08:17;21.05;;;12.30;;
65996;SDS011;52765;52.258;21.052;2022-11-18T00:10:43;24.80;;;11.77;;
65996;SDS011;52765;52.258;21.052;2022-11-18T00:13:10;18.45;;;11.20;;
65996;SDS011;52765;52.258;21.052;2022-11-18T00:15:59;27.13;;;12.35;;
65996;SDS011;52765;52.258;21.052;2022-11-18T00:18:29;20.23;;;11.80;;
65996;SDS011;52765;52.258;21.052;2022-11-18T00:20:54;20.27;;;11.70;;
65996;SDS011;52765;52.258;21.052;2022-11-18T00:23:20;21.73;;;11.70;;
65996;SDS011;52765;52.258;21.052;2022-11-18T00:25:45;24.52;;;12.40;;
65996;SDS011;52765;52.258;21.052;2022-11-18T00:28:11;20.40;;;11.45;;
65996;SDS011;52765;52.258;21.052;2022-11-18T00:30:36;22.23;;;12.10;;
65996;SDS011;52765;52.258;21.052;2022-11-18T00:33:01;22.38;;;11.48;;
65996;SDS011;52765;52.258;21.052;2022-11-18T00:35:27;21.52;;;11.45;;
65996;SDS011;52765;52.258;21.052;2022-11-18T00:37:52;21.27;;;12.50;;
65996;SDS011;52765;52.258;21.052;2022-11-18T00:40:18;22.00;;;12.45;;
65996;SDS011;52765;52.258;21.052;2022-11-18T00:42:43;22.92;;;11.55;;
65996;SDS011;52765;52.258;21.052;2022-11-18T00:45:15;18.70;;;11.88;;
65996;SDS011;52765;52.258;21.052;2022-11-18T00:47:40;21.80;;;11.82;;
65996;SDS011;52765;52.258;21.052;2022-11-18T00:50:06;22.02;;;11.30;;
65996;SDS011;52765;52.258;21.052;2022-11-18T00:52:31;24.95;;;11.98;;
65996;SDS011;52765;52.258;21.052;2022-11-18T00:54:57;22.85;;;12.20;;
65996;SDS011;52765;52.258;21.052;2022-11-18T00:57:22;21.33;;;11.30;;
65996;SDS011;52765;52.258;21.052;2022-11-18T00:59:48;22.95;;;11.63;;
65996;SDS011;52765;52.258;21.052;2022-11-18T01:02:13;19.48;;;10.95;;
65996;SDS011;52765;52.258;21.052;2022-11-18T01:04:39;20.88;;;11.60;;
65996;SDS011;52765;52.258;21.052;2022-11-18T01:07:04;20.58;;;12.32;;
65996;SDS011;52765;52.258;21.052;2022-11-18T01:09:30;22.25;;;11.55;;
65996;SDS011;52765;52.258;21.052;2022-11-18T01:11:55;21.10;;;12.25;;
65996;SDS011;52765;52.258;21.052;2022-11-18T01:14:39;22.83;;;11.00;;
65996;SDS011;52765;52.258;21.052;2022-11-18T01:17:05;24.33;;;11.82;;
65996;SDS011;52765;52.258;21.052;2022-11-18T01:19:31;26.10;;;11.90;;
65996;SDS011;52765;52.258;21.052;2022-11-18T01:21:57;21.60;;;11.85;;
65996;SDS011;52765;52.258;21.052;2022-11-18T01:24:27;19.77;;;11.05;;
65996;SDS011;52765;52.258;21.052;2022-11-18T01:26:56;23.85;;;11.82;;
65996;SDS011;52765;52.258;21.052;2022-11-18T01:29:21;19.05;;;11.60;;
65996;SDS011;52765;52.258;21.052;2022-11-18T01:31:47;18.15;;;10.80;;
65996;SDS011;52765;52.258;21.052;2022-11-18T01:34:12;23.13;;;11.83;;
65996;SDS011;52765;52.258;21.052;2022-11-18T01:36:38;20.98;;;11.50;;
65996;SDS011;52765;52.258;21.052;2022-11-18T01:39:03;18.05;;;11.18;;
65996;SDS011;52765;52.258;21.052;2022-11-18T01:41:29;20.63;;;11.90;;
65996;SDS011;52765;52.258;21.052;2022-11-18T01:44:02;24.15;;;13.25;;
65996;SDS011;52765;52.258;21.052;2022-11-18T01:51:34;20.83;;;11.80;;
65996;SDS011;52765;52.258;21.052;2022-11-18T01:54:07;23.88;;;11.77;;
65996;SDS011;52765;52.258;21.052;2022-11-18T01:56:38;25.17;;;12.25;;
65996;SDS011;52765;52.258;21.052;2022-11-18T01:59:10;23.70;;;12.63;;
65996;SDS011;52765;52.258;21.052;2022-11-18T02:01:38;23.77;;;11.73;;
65996;SDS011;52765;52.258;21.052;2022-11-18T02:04:04;20.90;;;11.65;;
65996;SDS011;52765;52.258;21.052;2022-11-18T02:06:31;21.20;;;10.93;;
65996;SDS011;52765;52.258;21.052;2022-11-18T02:08:57;20.00;;;11.27;;
65996;SDS011;52765;52.258;21.052;2022-11-18T02:11:23;17.20;;;10.63;;
65996;SDS011;52765;52.258;21.052;2022-11-18T02:14:08;15.68;;;10.35;;
65996;SDS011;52765;52.258;21.052;2022-11-18T02:27:57;17.35;;;10.20;;
65996;SDS011;52765;52.258;21.052;2022-11-18T02:30:33;17.60;;;10.05;;
65996;SDS011;52765;52.258;21.052;2022-11-18T02:38:30;17.20;;;10.15;;
65996;SDS011;52765;52.258;21.052;2022-11-18T02:41:13;18.90;;;10.68;;
65996;SDS011;52765;52.258;21.052;2022-11-18T02:43:46;18.15;;;10.20;;
65996;SDS011;52765;52.258;21.052;2022-11-18T02:46:20;17.92;;;9.85;;
65996;SDS011;52765;52.258;21.052;2022-11-18T02:48:52;14.38;;;8.90;;
65996;SDS011;52765;52.258;21.052;2022-11-18T02:51:20;17.40;;;9.50;;
65996;SDS011;52765;52.258;21.052;2022-11-18T02:53:49;17.05;;;9.30;;
65996;SDS011;52765;52.258;21.052;2022-11-18T02:56:17;19.67;;;9.50;;
65996;SDS011;52765;52.258;21.052;2022-11-18T02:58:44;15.95;;;8.70;;
65996;SDS011;52765;52.258;21.052;2022-11-18T03:01:15;16.33;;;9.20;;
65996;SDS011;52765;52.258;21.052;2022-11-18T03:11:30;22.20;;;12.60;;
65996;SDS011;52765;52.258;21.052;2022-11-18T03:17:01;23.63;;;12.57;;
65996;SDS011;52765;52.258;21.052;2022-11-18T03:22:11;22.75;;;13.38;;
65996;SDS011;52765;52.258;21.052;2022-11-18T03:24:55;23.17;;;12.98;;
65996;SDS011;52765;52.258;21.052;2022-11-18T03:27:35;26.08;;;13.88;;
65996;SDS011;52765;52.258;21.052;2022-11-18T03:30:22;24.30;;;13.60;;
65996;SDS011;52765;52.258;21.052;2022-11-18T03:32:55;24.70;;;13.75;;
65996;SDS011;52765;52.258;21.052;2022-11-18T03:35:25;29.02;;;13.75;;
65996;SDS011;52765;52.258;21.052;2022-11-18T03:37:58;28.33;;;14.52;;
65996;SDS011;52765;52.258;21.052;2022-11-18T03:40:30;29.17;;;14.73;;
65996;SDS011;52765;52.258;21.052;2022-11-18T03:42:59;31.55;;;14.45;;
65996;SDS011;52765;52.258;21.052;2022-11-18T03:45:32;27.27;;;14.07;;
65996;SDS011;52765;52.258;21.052;2022-11-18T03:48:09;31.05;;;14.48;;
65996;SDS011;52765;52.258;21.052;2022-11-18T03:51:13;28.15;;;13.43;;
65996;SDS011;52765;52.258;21.052;2022-11-18T03:53:35;29.02;;;13.48;;
65996;SDS011;52765;52.258;21.052;2022-11-18T03:56:05;28.50;;;13.23;;
65996;SDS011;52765;52.258;21.052;2022-11-18T03:58:56;26.85;;;13.07;;
65996;SDS011;52765;52.258;21.052;2022-11-18T04:01:40;28.02;;;13.27;;
65996;SDS011;52765;52.258;21.052;2022-11-18T04:04:11;26.25;;;12.07;;
65996;SDS011;52765;52.258;21.052;2022-11-18T04:09:25;24.95;;;13.13;;
65996;SDS011;52765;52.258;21.052;2022-11-18T04:14:26;23.92;;;12.07;;
65996;SDS011;52765;52.258;21.052;2022-11-18T04:16:53;27.65;;;13.02;;
65996;SDS011;52765;52.258;21.052;2022-11-18T04:19:18;25.05;;;12.32;;
65996;SDS011;52765;52.258;21.052;2022-11-18T04:21:44;24.45;;;12.02;;
65996;SDS011;52765;52.258;21.052;2022-11-18T04:24:11;24.05;;;13.13;;
65996;SDS011;52765;52.258;21.052;2022-11-18T04:26:36;23.48;;;12.13;;
65996;SDS011;52765;52.258;21.052;2022-11-18T04:29:02;25.15;;;11.23;;
65996;SDS011;52765;52.258;21.052;2022-11-18T04:31:28;20.25;;;10.35;;
65996;SDS011;52765;52.258;21.052;2022-11-18T04:33:53;22.67;;;11.50;;
65996;SDS011;52765;52.258;21.052;2022-11-18T04:36:18;24.50;;;11.68;;
65996;SDS011;52765;52.258;21.052;2022-11-18T04:38:44;21.27;;;11.60;;
65996;SDS011;52765;52.258;21.052;2022-11-18T04:41:10;21.33;;;10.98;;
65996;SDS011;52765;52.258;21.052;2022-11-18T04:43:35;22.02;;;11.23;;
65996;SDS011;52765;52.258;21.052;2022-11-18T04:46:01;24.48;;;12.18;;
65996;SDS011;52765;52.258;21.052;2022-11-18T04:48:26;24.25;;;11.95;;
65996;SDS011;52765;52.258;21.052;2022-11-18T04:50:52;21.35;;;11.27;;
65996;SDS011;52765;52.258;21.052;2022-11-18T04:53:17;24.50;;;11.70;;
65996;SDS011;52765;52.258;21.052;2022-11-18T04:55:43;26.65;;;12.50;;
65996;SDS011;52765;52.258;21.052;2022-11-18T04:58:08;22.92;;;11.30;;
65996;SDS011;52765;52.258;21.052;2022-11-18T05:00:33;20.08;;;10.68;;
65996;SDS011;52765;52.258;21.052;2022-11-18T05:02:59;24.77;;;11.30;;
65996;SDS011;52765;52.258;21.052;2022-11-18T05:05:24;23.45;;;11.30;;
65996;SDS011;52765;52.258;21.052;2022-11-18T05:07:50;22.75;;;12.10;;
65996;SDS011;52765;52.258;21.052;2022-11-18T05:10:15;21.02;;;10.88;;
65996;SDS011;52765;52.258;21.052;2022-11-18T05:12:41;20.85;;;11.00;;
65996;SDS011;52765;52.258;21.052;2022-11-18T05:15:12;23.55;;;12.30;;
65996;SDS011;52765;52.258;21.052;2022-11-18T05:17:38;22.25;;;11.25;;
65996;SDS011;52765;52.258;21.052;2022-11-18T05:20:04;21.52;;;11.27;;
65996;SDS011;52765;52.258;21.052;2022-11-18T05:22:30;22.45;;;10.85;;
65996;SDS011;52765;52.258;21.052;2022-11-18T05:24:55;22.50;;;10.68;;
65996;SDS011;52765;52.258;21.052;2022-11-18T05:27:21;21.67;;;10.13;;
65996;SDS011;52765;52.258;21.052;2022-11-18T05:29:46;19.67;;;9.90;;
65996;SDS011;52765;52.258;21.052;2022-11-18T05:32:12;18.58;;;9.75;;
65996;SDS011;52765;52.258;21.052;2022-11-18T05:34:38;19.05;;;9.48;;
65996;SDS011;52765;52.258;21.052;2022-11-18T05:37:04;17.30;;;8.30;;
65996;SDS011;52765;52.258;21.052;2022-11-18T05:39:30;13.13;;;7.70;;
65996;SDS011;52765;52.258;21.052;2022-11-18T05:41:58;17.08;;;8.23;;
65996;SDS011;52765;52.258;21.052;2022-11-18T05:44:42;14.80;;;7.38;;
65996;SDS011;52765;52.258;21.052;2022-11-18T05:47:11;13.43;;;7.43;;
65996;SDS011;52765;52.258;21.052;2022-11-18T05:49:38;12.77;;;7.53;;
65996;SDS011;52765;52.258;21.052;2022-11-18T05:52:04;12.90;;;6.65;;
65996;SDS011;52765;52.258;21.052;2022-11-18T05:54:29;14.13;;;7.57;;
65996;SDS011;52765;52.258;21.052;2022-11-18T05:56:56;15.95;;;7.20;;
65996;SDS011;52765;52.258;21.052;2022-11-18T05:59:22;13.15;;;7.25;;
65996;SDS011;52765;52.258;21.052;2022-11-18T06:01:49;13.70;;;6.95;;
65996;SDS011;52765;52.258;21.052;2022-11-18T06:06:53;14.07;;;6.18;;
65996;SDS011;52765;52.258;21.052;2022-11-18T06:09:29;12.35;;;6.70;;
65996;SDS011;52765;52.258;21.052;2022-11-18T06:11:58;13.48;;;6.00;;
65996;SDS011;52765;52.258;21.052;2022-11-18T06:16:58;14.10;;;6.65;;
65996;SDS011;52765;52.258;21.052;2022-11-18T06:19:29;14.95;;;6.40;;
65996;SDS011;52765;52.258;21.052;2022-11-18T06:21:56;19.67;;;8.38;;
65996;SDS011;52765;52.258;21.052;2022-11-18T06:24:23;15.68;;;7.60;;
65996;SDS011;52765;52.258;21.052;2022-11-18T06:26:48;13.88;;;6.97;;
65996;SDS011;52765;52.258;21.052;2022-11-18T06:29:14;13.35;;;6.85;;
65996;SDS011;52765;52.258;21.052;2022-11-18T06:31:42;11.90;;;6.90;;
65996;SDS011;52765;52.258;21.052;2022-11-18T06:34:08;13.57;;;6.55;;
65996;SDS011;52765;52.258;21.052;2022-11-18T06:36:34;11.68;;;6.90;;
65996;SDS011;52765;52.258;21.052;2022-11-18T06:39:03;14.93;;;7.63;;
65996;SDS011;52765;52.258;21.052;2022-11-18T06:41:29;14.13;;;7.03;;
65996;SDS011;52765;52.258;21.052;2022-11-18T06:43:55;12.75;;;6.85;;
65996;SDS011;52765;52.258;21.052;2022-11-18T06:46:20;16.10;;;7.57;;
65996;SDS011;52765;52.258;21.052;2022-11-18T06:49:04;15.23;;;7.30;;
65996;SDS011;52765;52.258;21.052;2022-11-18T06:51:30;13.18;;;6.95;;
65996;SDS011;52765;52.258;21.052;2022-11-18T06:53:56;9.23;;;5.93;;
65996;SDS011;52765;52.258;21.052;2022-11-18T06:56:21;13.23;;;6.75;;
65996;SDS011;52765;52.258;21.052;2022-11-18T06:58:51;14.45;;;6.45;;
65996;SDS011;52765;52.258;21.052;2022-11-18T07:01:22;15.20;;;6.43;;
65996;SDS011;52765;52.258;21.052;2022-11-18T07:03:49;12.27;;;6.63;;
65996;SDS011;52765;52.258;21.052;2022-11-18T07:06:18;15.60;;;7.40;;
65996;SDS011;52765;52.258;21.052;2022-11-18T07:08:49;11.98;;;5.72;;
65996;SDS011;52765;52.258;21.052;2022-11-18T07:11:17;10.32;;;5.95;;
65996;SDS011;52765;52.258;21.052;2022-11-18T07:13:44;12.23;;;6.00;;
65996;SDS011;52765;52.258;21.052;2022-11-18T07:16:11;11.48;;;6.45;;
65996;SDS011;52765;52.258;21.052;2022-11-18T07:18:42;12.02;;;6.30;;
65996;SDS011;52765;52.258;21.052;2022-11-18T07:21:18;15.30;;;7.00;;
65996;SDS011;52765;52.258;21.052;2022-11-18T07:23:45;11.68;;;6.43;;
65996;SDS011;52765;52.258;21.052;2022-11-18T07:26:11;9.90;;;5.68;;
65996;SDS011;52765;52.258;21.052;2022-11-18T07:28:37;12.60;;;6.20;;
65996;SDS011;52765;52.258;21.052;2022-11-18T07:31:04;14.80;;;6.10;;
65996;SDS011;52765;52.258;21.052;2022-11-18T07:33:31;10.05;;;5.90;;
65996;SDS011;52765;52.258;21.052;2022-11-18T07:35:59;9.27;;;4.95;;
65996;SDS011;52765;52.258;21.052;2022-11-18T07:38:26;12.60;;;6.03;;
65996;SDS011;52765;52.258;21.052;2022-11-18T07:40:52;13.18;;;6.88;;
65996;SDS011;52765;52.258;21.052;2022-11-18T07:43:17;12.10;;;6.38;;
65996;SDS011;52765;52.258;21.052;2022-11-18T07:45:42;11.63;;;5.97;;
65996;SDS011;52765;52.258;21.052;2022-11-18T07:48:09;12.85;;;5.40;;
65996;SDS011;52765;52.258;21.052;2022-11-18T07:50:35;14.02;;;6.43;;
65996;SDS011;52765;52.258;21.052;2022-11-18T07:53:01;11.35;;;6.32;;
65996;SDS011;52765;52.258;21.052;2022-11-18T07:55:27;8.55;;;5.03;;
65996;SDS011;52765;52.258;21.052;2022-11-18T07:57:54;10.38;;;5.18;;
65996;SDS011;52765;52.258;21.052;2022-11-18T08:00:21;8.25;;;4.38;;
65996;SDS011;52765;52.258;21.052;2022-11-18T08:02:49;9.75;;;5.03;;
65996;SDS011;52765;52.258;21.052;2022-11-18T08:05:15;7.82;;;4.28;;
65996;SDS011;52765;52.258;21.052;2022-11-18T08:07:41;10.82;;;5.15;;
65996;SDS011;52765;52.258;21.052;2022-11-18T08:10:07;8.27;;;4.50;;
65996;SDS011;52765;52.258;21.052;2022-11-18T08:12:34;12.57;;;5.35;;
65996;SDS011;52765;52.258;21.052;2022-11-18T08:15:00;9.75;;;5.60;;
65996;SDS011;52765;52.258;21.052;2022-11-18T08:17:25;9.27;;;5.00;;
65996;SDS011;52765;52.258;21.052;2022-11-18T08:19:51;9.38;;;4.82;;
65996;SDS011;52765;52.258;21.052;2022-11-18T08:22:16;11.57;;;5.03;;
65996;SDS011;52765;52.258;21.052;2022-11-18T08:24:44;11.93;;;5.10;;
65996;SDS011;52765;52.258;21.052;2022-11-18T08:27:12;8.52;;;4.60;;
65996;SDS011;52765;52.258;21.052;2022-11-18T08:29:39;8.98;;;4.57;;
65996;SDS011;52765;52.258;21.052;2022-11-18T08:32:05;10.00;;;4.57;;
65996;SDS011;52765;52.258;21.052;2022-11-18T08:34:31;10.65;;;4.90;;
65996;SDS011;52765;52.258;21.052;2022-11-18T08:36:57;12.15;;;5.20;;
65996;SDS011;52765;52.258;21.052;2022-11-18T08:39:24;8.30;;;4.47;;
65996;SDS011;52765;52.258;21.052;2022-11-18T08:41:51;12.45;;;5.38;;
65996;SDS011;52765;52.258;21.052;2022-11-18T08:44:19;8.88;;;4.10;;
65996;SDS011;52765;52.258;21.052;2022-11-18T08:46:50;10.35;;;5.45;;
65996;SDS011;52765;52.258;21.052;2022-11-18T08:49:16;6.78;;;4.00;;
65996;SDS011;52765;52.258;21.052;2022-11-18T08:51:42;8.27;;;3.70;;
65996;SDS011;52765;52.258;21.052;2022-11-18T08:54:10;9.27;;;3.55;;
65996;SDS011;52765;52.258;21.052;2022-11-18T08:56:36;7.13;;;4.00;;
65996;SDS011;52765;52.258;21.052;2022-11-18T08:59:03;7.03;;;3.83;;
65996;SDS011;52765;52.258;21.052;2022-11-18T09:01:31;5.90;;;3.92;;
65996;SDS011;52765;52.258;21.052;2022-11-18T09:03:57;9.98;;;4.28;;
65996;SDS011;52765;52.258;21.052;2022-11-18T09:06:24;6.85;;;4.13;;
65996;SDS011;52765;52.258;21.052;2022-11-18T09:08:51;8.70;;;3.88;;
65996;SDS011;52765;52.258;21.052;2022-11-18T09:11:19;7.45;;;4.10;;
65996;SDS011;52765;52.258;21.052;2022-11-18T09:13:51;13.05;;;4.80;;
65996;SDS011;52765;52.258;21.052;2022-11-18T09:16:22;9.75;;;5.05;;
65996;SDS011;52765;52.258;21.052;2022-11-18T09:18:49;8.90;;;4.53;;
65996;SDS011;52765;52.258;21.052;2022-11-18T09:21:28;11.35;;;4.53;;
65996;SDS011;52765;52.258;21.052;2022-11-18T09:23:55;8.27;;;4.18;;
65996;SDS011;52765;52.258;21.052;2022-11-18T09:26:22;12.77;;;4.68;;
65996;SDS011;52765;52.258;21.052;2022-11-18T09:28:51;8.43;;;4.10;;
65996;SDS011;52765;52.258;21.052;2022-11-18T09:31:19;6.75;;;3.97;;
65996;SDS011;52765;52.258;21.052;2022-11-18T09:33:49;7.88;;;3.80;;
65996;SDS011;52765;52.258;21.052;2022-11-18T09:36:19;5.38;;;3.28;;
65996;SDS011;52765;52.258;21.052;2022-11-18T09:38:48;11.40;;;3.72;;
65996;SDS011;52765;52.258;21.052;2022-11-18T09:44:08;6.35;;;3.65;;
65996;SDS011;52765;52.258;21.052;2022-11-18T09:49:15;12.18;;;4.22;;
65996;SDS011;52765;52.258;21.052;2022-11-18T09:52:00;6.10;;;3.83;;
65996;SDS011;52765;52.258;21.052;2022-11-18T09:54:29;6.30;;;4.10;;
65996;SDS011;52765;52.258;21.052;2022-11-18T09:56:58;6.53;;;3.92;;
65996;SDS011;52765;52.258;21.052;2022-11-18T09:59:27;7.20;;;3.47;;
65996;SDS011;52765;52.258;21.052;2022-11-18T10:05:00;8.13;;;3.92;;
65996;SDS011;52765;52.258;21.052;2022-11-18T10:07:41;8.65;;;4.03;;
65996;SDS011;52765;52.258;21.052;2022-11-18T10:10:18;11.75;;;4.30;;
65996;SDS011;52765;52.258;21.052;2022-11-18T10:12:56;11.95;;;4.18;;
65996;SDS011;52765;52.258;21.052;2022-11-18T10:15:35;7.53;;;3.97;;
65996;SDS011;52765;52.258;21.052;2022-11-18T10:25:44;11.25;;;4.53;;
65996;SDS011;52765;52.258;21.052;2022-11-18T10:28:26;10.90;;;4.13;;
65996;SDS011;52765;52.258;21.052;2022-11-18T10:31:04;6.22;;;3.83;;
65996;SDS011;52765;52.258;21.052;2022-11-18T10:33:32;7.00;;;3.80;;
65996;SDS011;52765;52.258;21.052;2022-11-18T10:36:10;6.28;;;3.70;;
65996;SDS011;52765;52.258;21.052;2022-11-18T10:38:38;9.23;;;3.40;;
65996;SDS011;52765;52.258;21.052;2022-11-18T10:41:11;12.80;;;3.33;;
65996;SDS011;52765;52.258;21.052;2022-11-18T10:43:53;7.18;;;3.00;;
65996;SDS011;52765;52.258;21.052;2022-11-18T10:51:33;15.60;;;4.97;;
65996;SDS011;52765;52.258;21.052;2022-11-18T10:54:08;13.10;;;4.43;;
65996;SDS011;52765;52.258;21.052;2022-11-18T10:56:48;45.55;;;10.43;;
65996;SDS011;52765;52.258;21.052;2022-11-18T11:02:25;24.67;;;6.97;;
65996;SDS011;52765;52.258;21.052;2022-11-18T11:10:56;8.13;;;3.50;;
65996;SDS011;52765;52.258;21.052;2022-11-18T11:13:25;4.68;;;3.20;;
65996;SDS011;52765;52.258;21.052;2022-11-18T11:15:57;16.42;;;5.43;;
65996;SDS011;52765;52.258;21.052;2022-11-18T11:18:29;26.10;;;8.57;;
65996;SDS011;52765;52.258;21.052;2022-11-18T11:23:38;8.73;;;3.95;;
65996;SDS011;52765;52.258;21.052;2022-11-18T11:35:09;8.57;;;3.88;;
65996;SDS011;52765;52.258;21.052;2022-11-18T11:37:57;8.20;;;4.23;;
65996;SDS011;52765;52.258;21.052;2022-11-18T11:43:21;8.50;;;3.78;;
65996;SDS011;52765;52.258;21.052;2022-11-18T11:48:27;9.77;;;3.95;;
65996;SDS011;52765;52.258;21.052;2022-11-18T12:01:13;8.68;;;4.30;;
65996;SDS011;52765;52.258;21.052;2022-11-18T12:03:47;8.15;;;3.85;;
65996;SDS011;52765;52.258;21.052;2022-11-18T12:06:17;8.30;;;4.70;;
65996;SDS011;52765;52.258;21.052;2022-11-18T12:09:08;6.97;;;3.80;;
65996;SDS011;52765;52.258;21.052;2022-11-18T12:11:51;8.43;;;3.70;;
65996;SDS011;52765;52.258;21.052;2022-11-18T12:16:56;5.85;;;3.03;;
65996;SDS011;52765;52.258;21.052;2022-11-18T12:19:25;5.88;;;3.17;;
65996;SDS011;52765;52.258;21.052;2022-11-18T12:21:53;6.65;;;3.40;;
65996;SDS011;52765;52.258;21.052;2022-11-18T12:24:23;8.43;;;3.47;;
65996;SDS011;52765;52.258;21.052;2022-11-18T12:29:53;6.40;;;3.40;;
65996;SDS011;52765;52.258;21.052;2022-11-18T12:32:31;8.48;;;4.13;;
65996;SDS011;52765;52.258;21.052;2022-11-18T12:37:46;8.90;;;3.75;;
65996;SDS011;52765;52.258;21.052;2022-11-18T12:40:39;9.95;;;4.00;;
65996;SDS011;52765;52.258;21.052;2022-11-18T12:46:08;6.28;;;3.67;;
65996;SDS011;52765;52.258;21.052;2022-11-18T12:48:54;7.82;;;3.83;;
65996;SDS011;52765;52.258;21.052;2022-11-18T12:53:49;6.53;;;3.80;;
65996;SDS011;52765;52.258;21.052;2022-11-18T12:56:22;7.65;;;3.88;;
65996;SDS011;52765;52.258;21.052;2022-11-18T12:58:54;6.38;;;3.72;;
65996;SDS011;52765;52.258;21.052;2022-11-18T13:01:25;8.45;;;3.97;;
65996;SDS011;52765;52.258;21.052;2022-11-18T13:04:08;6.82;;;3.90;;
65996;SDS011;52765;52.258;21.052;2022-11-18T13:06:52;9.27;;;4.20;;
65996;SDS011;52765;52.258;21.052;2022-11-18T13:09:24;13.30;;;4.45;;
65996;SDS011;52765;52.258;21.052;2022-11-18T13:14:29;8.48;;;4.32;;
65996;SDS011;52765;52.258;21.052;2022-11-18T13:17:30;8.45;;;3.95;;
65996;SDS011;52765;52.258;21.052;2022-11-18T13:22:58;9.38;;;3.80;;
65996;SDS011;52765;52.258;21.052;2022-11-18T13:25:46;8.73;;;4.32;;
65996;SDS011;52765;52.258;21.052;2022-11-18T13:31:12;70.60;;;12.98;;
65996;SDS011;52765;52.258;21.052;2022-11-18T13:36:15;124.88;;;22.00;;
65996;SDS011;52765;52.258;21.052;2022-11-18T13:38:53;94.82;;;18.77;;
65996;SDS011;52765;52.258;21.052;2022-11-18T13:41:41;46.92;;;11.50;;
65996;SDS011;52765;52.258;21.052;2022-11-18T13:44:22;15.85;;;5.57;;
65996;SDS011;52765;52.258;21.052;2022-11-18T13:46:59;18.40;;;5.43;;
65996;SDS011;52765;52.258;21.052;2022-11-18T13:49:46;60.17;;;13.93;;
65996;SDS011;52765;52.258;21.052;2022-11-18T13:52:14;24.85;;;7.43;;
65996;SDS011;52765;52.258;21.052;2022-11-18T13:54:47;14.30;;;5.47;;
65996;SDS011;52765;52.258;21.052;2022-11-18T13:57:17;13.57;;;5.43;;
65996;SDS011;52765;52.258;21.052;2022-11-18T13:59:46;9.45;;;4.28;;
65996;SDS011;52765;52.258;21.052;2022-11-18T14:02:14;10.98;;;4.80;;
65996;SDS011;52765;52.258;21.052;2022-11-18T14:05:14;10.20;;;4.05;;
65996;SDS011;52765;52.258;21.052;2022-11-18T14:07:41;10.80;;;4.88;;
65996;SDS011;52765;52.258;21.052;2022-11-18T14:10:40;13.07;;;5.53;;
65996;SDS011;52765;52.258;21.052;2022-11-18T14:15:51;10.32;;;5.90;;
65996;SDS011;52765;52.258;21.052;2022-11-18T14:18:19;15.88;;;5.45;;
65996;SDS011;52765;52.258;21.052;2022-11-18T14:21:28;13.43;;;7.32;;
65996;SDS011;52765;52.258;21.052;2022-11-18T14:24:02;13.02;;;6.20;;
65996;SDS011;52765;52.258;21.052;2022-11-18T14:26:32;14.35;;;6.25;;
65996;SDS011;52765;52.258;21.052;2022-11-18T14:29:24;12.25;;;6.05;;
65996;SDS011;52765;52.258;21.052;2022-11-18T14:34:56;17.45;;;7.65;;
65996;SDS011;52765;52.258;21.052;2022-11-18T14:37:23;14.18;;;7.57;;
65996;SDS011;52765;52.258;21.052;2022-11-18T14:39:55;16.33;;;8.40;;
65996;SDS011;52765;52.258;21.052;2022-11-18T14:42:21;14.40;;;7.68;;
65996;SDS011;52765;52.258;21.052;2022-11-18T14:44:47;12.65;;;7.53;;
65996;SDS011;52765;52.258;21.052;2022-11-18T14:47:23;17.95;;;8.68;;
65996;SDS011;52765;52.258;21.052;2022-11-18T14:49:52;15.30;;;8.13;;
65996;SDS011;52765;52.258;21.052;2022-11-18T14:52:17;13.30;;;8.13;;
65996;SDS011;52765;52.258;21.052;2022-11-18T14:54:43;14.70;;;7.63;;
65996;SDS011;52765;52.258;21.052;2022-11-18T14:57:09;13.88;;;8.23;;
65996;SDS011;52765;52.258;21.052;2022-11-18T14:59:39;15.23;;;8.05;;
65996;SDS011;52765;52.258;21.052;2022-11-18T15:02:05;14.15;;;8.10;;
65996;SDS011;52765;52.258;21.052;2022-11-18T15:04:36;22.80;;;8.68;;
65996;SDS011;52765;52.258;21.052;2022-11-18T15:07:02;17.50;;;8.70;;
65996;SDS011;52765;52.258;21.052;2022-11-18T15:09:27;16.85;;;8.70;;
65996;SDS011;52765;52.258;21.052;2022-11-18T15:11:53;17.88;;;8.38;;
65996;SDS011;52765;52.258;21.052;2022-11-18T15:14:18;17.15;;;9.20;;
65996;SDS011;52765;52.258;21.052;2022-11-18T15:16:45;16.55;;;8.82;;
65996;SDS011;52765;52.258;21.052;2022-11-18T15:19:12;17.17;;;9.43;;
65996;SDS011;52765;52.258;21.052;2022-11-18T15:21:39;13.68;;;7.55;;
65996;SDS011;52765;52.258;21.052;2022-11-18T15:24:04;13.75;;;7.00;;
65996;SDS011;52765;52.258;21.052;2022-11-18T15:26:34;14.90;;;7.07;;
65996;SDS011;52765;52.258;21.052;2022-11-18T15:29:07;11.73;;;5.93;;
65996;SDS011;52765;52.258;21.052;2022-11-18T15:31:41;11.75;;;5.95;;
65996;SDS011;52765;52.258;21.052;2022-11-18T15:34:07;11.90;;;6.28;;
65996;SDS011;52765;52.258;21.052;2022-11-18T15:36:32;12.73;;;6.60;;
65996;SDS011;52765;52.258;21.052;2022-11-18T15:38:58;11.40;;;6.43;;
65996;SDS011;52765;52.258;21.052;2022-11-18T15:41:27;11.02;;;6.20;;
65996;SDS011;52765;52.258;21.052;2022-11-18T15:43:54;11.13;;;6.00;;
65996;SDS011;52765;52.258;21.052;2022-11-18T15:46:22;13.13;;;6.43;;
65996;SDS011;52765;52.258;21.052;2022-11-18T15:48:55;11.98;;;6.75;;
65996;SDS011;52765;52.258;21.052;2022-11-18T15:51:22;11.77;;;6.75;;
65996;SDS011;52765;52.258;21.052;2022-11-18T15:53:48;14.00;;;6.72;;
65996;SDS011;52765;52.258;21.052;2022-11-18T16:01:53;14.35;;;6.55;;
65996;SDS011;52765;52.258;21.052;2022-11-18T16:04:19;15.60;;;7.10;;
65996;SDS011;52765;52.258;21.052;2022-11-18T16:06:45;14.52;;;7.18;;
65996;SDS011;52765;52.258;21.052;2022-11-18T16:09:11;14.05;;;7.47;;
65996;SDS011;52765;52.258;21.052;2022-11-18T16:11:38;13.45;;;7.30;;
65996;SDS011;52765;52.258;21.052;2022-11-18T16:14:22;14.93;;;7.25;;
65996;SDS011;52765;52.258;21.052;2022-11-18T16:16:49;13.30;;;6.88;;
65996;SDS011;52765;52.258;21.052;2022-11-18T16:19:19;16.48;;;8.05;;
65996;SDS011;52765;52.258;21.052;2022-11-18T16:22:05;12.70;;;7.03;;
65996;SDS011;52765;52.258;21.052;2022-11-18T16:24:30;15.98;;;7.97;;
65996;SDS011;52765;52.258;21.052;2022-11-18T16:26:56;21.20;;;8.80;;
65996;SDS011;52765;52.258;21.052;2022-11-18T16:29:22;20.92;;;8.55;;
65996;SDS011;52765;52.258;21.052;2022-11-18T16:31:47;26.40;;;9.35;;
65996;SDS011;52765;52.258;21.052;2022-11-18T16:34:25;27.98;;;9.98;;
65996;SDS011;52765;52.258;21.052;2022-11-18T16:36:53;56.22;;;12.88;;
65996;SDS011;52765;52.258;21.052;2022-11-18T16:39:21;39.30;;;11.73;;
65996;SDS011;52765;52.258;21.052;2022-11-18T16:41:49;76.97;;;17.15;;
65996;SDS011;52765;52.258;21.052;2022-11-18T16:44:15;143.02;;;24.20;;
65996;SDS011;52765;52.258;21.052;2022-11-18T16:46:44;39.72;;;12.18;;
65996;SDS011;52765;52.258;21.052;2022-11-18T16:49:12;38.45;;;9.88;;
65996;SDS011;52765;52.258;21.052;2022-11-18T16:51:40;29.00;;;9.32;;
65996;SDS011;52765;52.258;21.052;2022-11-18T16:54:06;42.42;;;11.13;;
65996;SDS011;52765;52.258;21.052;2022-11-18T16:56:38;27.13;;;9.52;;